sensor_id;sensor_type;location;lat;lon;timestamp;temperature;humidity
14357;DHT22;7262;48.764;9.166;2022-12-18T00:02:24;-7.90;99.90
14357;DHT22;7262;48.764;9.166;2022-12-18T00:04:50;-7.80;99.90
14357;DHT22;7262;48.764;9.166;2022-12-18T00:07:21;-7.80;99.90
14357;DHT22;7262;48.764;9.166;2022-12-18T00:09:48;-7.80;99.90
14357;DHT22;7262;48.764;9.166;2022-12-18T00:12:14;-7.80;99.90
14357;DHT22;7262;48.764;9.166;2022-12-18T00:14:41;-7.80;99.90
14357;DHT22;7262;48.764;9.166;2022-12-18T00:17:08;-7.80;99.90
14357;DHT22;7262;48.764;9.166;2022-12-18T00:19:35;-7.80;99.90
14357;DHT22;7262;48.764;9.166;2022-12-18T00:22:02;-7.90;99.90
14357;DHT22;7262;48.764;9.166;2022-12-18T00:24:34;-7.80;99.90
14357;DHT22;7262;48.764;9.166;2022-12-18T00:27:00;-7.80;99.90
14357;DHT22;7262;48.764;9.166;2022-12-18T00:29:27;-7.80;99.90
14357;DHT22;7262;48.764;9.166;2022-12-18T00:31:54;-7.90;99.90
14357;DHT22;7262;48.764;9.166;2022-12-18T00:34:21;-7.90;99.90
14357;DHT22;7262;48.764;9.166;2022-12-18T00:36:48;-7.80;99.90
14357;DHT22;7262;48.764;9.166;2022-12-18T00:39:15;-7.90;99.90
14357;DHT22;7262;48.764;9.166;2022-12-18T00:41:43;-7.90;99.90
14357;DHT22;7262;48.764;9.166;2022-12-18T00:44:27;-7.80;99.90
14357;DHT22;7262;48.764;9.166;2022-12-18T00:46:53;-7.80;99.90
14357;DHT22;7262;48.764;9.166;2022-12-18T00:49:20;-7.80;99.90
14357;DHT22;7262;48.764;9.166;2022-12-18T00:51:47;-7.80;99.90
14357;DHT22;7262;48.764;9.166;2022-12-18T00:54:18;-7.80;99.90
14357;DHT22;7262;48.764;9.166;2022-12-18T00:56:46;-7.70;99.90
14357;DHT22;7262;48.764;9.166;2022-12-18T00:59:13;-7.70;99.90
14357;DHT22;7262;48.764;9.166;2022-12-18T01:01:40;-7.80;99.90
14357;DHT22;7262;48.764;9.166;2022-12-18T01:04:08;-7.70;99.90
14357;DHT22;7262;48.764;9.166;2022-12-18T01:06:37;-7.70;99.90
14357;DHT22;7262;48.764;9.166;2022-12-18T01:09:04;-7.70;99.90
14357;DHT22;7262;48.764;9.166;2022-12-18T01:11:31;-7.80;99.90
14357;DHT22;7262;48.764;9.166;2022-12-18T01:14:01;-7.80;99.90
14357;DHT22;7262;48.764;9.166;2022-12-18T01:16:27;-7.80;99.90
14357;DHT22;7262;48.764;9.166;2022-12-18T01:18:54;-7.80;99.90
14357;DHT22;7262;48.764;9.166;2022-12-18T01:21:22;-7.80;99.90
14357;DHT22;7262;48.764;9.166;2022-12-18T01:23:50;-7.70;99.90
14357;DHT22;7262;48.764;9.166;2022-12-18T01:26:17;-7.70;99.90
14357;DHT22;7262;48.764;9.166;2022-12-18T01:28:46;-7.70;99.90
14357;DHT22;7262;48.764;9.166;2022-12-18T01:31:16;-7.70;99.90
14357;DHT22;7262;48.764;9.166;2022-12-18T01:33:43;-7.80;99.90
14357;DHT22;7262;48.764;9.166;2022-12-18T01:36:18;-7.80;99.90
14357;DHT22;7262;48.764;9.166;2022-12-18T01:38:45;-7.80;99.90
14357;DHT22;7262;48.764;9.166;2022-12-18T01:41:13;-7.80;99.90
14357;DHT22;7262;48.764;9.166;2022-12-18T01:43:41;-7.80;99.90
14357;DHT22;7262;48.764;9.166;2022-12-18T01:46:08;-7.70;99.90
14357;DHT22;7262;48.764;9.166;2022-12-18T01:48:37;-7.80;99.90
14357;DHT22;7262;48.764;9.166;2022-12-18T01:51:04;-7.80;99.90
14357;DHT22;7262;48.764;9.166;2022-12-18T01:53:32;-7.70;99.90
14357;DHT22;7262;48.764;9.166;2022-12-18T01:55:59;-7.70;99.90
14357;DHT22;7262;48.764;9.166;2022-12-18T01:58:27;-7.70;99.90
14357;DHT22;7262;48.764;9.166;2022-12-18T02:00:56;-7.70;99.90
14357;DHT22;7262;48.764;9.166;2022-12-18T02:03:23;-7.70;99.90
14357;DHT22;7262;48.764;9.166;2022-12-18T02:05:53;-7.60;99.90
14357;DHT22;7262;48.764;9.166;2022-12-18T02:08:25;-7.60;99.90
14357;DHT22;7262;48.764;9.166;2022-12-18T02:10:57;-7.50;99.90
14357;DHT22;7262;48.764;9.166;2022-12-18T02:13:36;-7.50;99.90
14357;DHT22;7262;48.764;9.166;2022-12-18T02:16:06;-7.40;99.90
14357;DHT22;7262;48.764;9.166;2022-12-18T02:18:36;-7.30;99.90
14357;DHT22;7262;48.764;9.166;2022-12-18T02:21:08;-7.30;99.90
14357;DHT22;7262;48.764;9.166;2022-12-18T02:23:42;-7.30;99.90
14357;DHT22;7262;48.764;9.166;2022-12-18T02:26:19;-7.20;99.90
14357;DHT22;7262;48.764;9.166;2022-12-18T02:28:49;-7.10;99.90
14357;DHT22;7262;48.764;9.166;2022-12-18T02:31:21;-7.20;99.90
14357;DHT22;7262;48.764;9.166;2022-12-18T02:33:49;-7.20;99.90
14357;DHT22;7262;48.764;9.166;2022-12-18T02:36:16;-7.20;99.90
14357;DHT22;7262;48.764;9.166;2022-12-18T02:38:44;-7.10;99.90
14357;DHT22;7262;48.764;9.166;2022-12-18T02:41:12;-7.10;99.90
14357;DHT22;7262;48.764;9.166;2022-12-18T02:43:42;-7.10;99.90
14357;DHT22;7262;48.764;9.166;2022-12-18T02:46:28;-7.10;99.90
14357;DHT22;7262;48.764;9.166;2022-12-18T02:48:57;-7.10;99.90
14357;DHT22;7262;48.764;9.166;2022-12-18T02:51:29;-7.10;99.90
14357;DHT22;7262;48.764;9.166;2022-12-18T02:53:58;-7.20;99.90
14357;DHT22;7262;48.764;9.166;2022-12-18T02:56:28;-7.10;99.90
14357;DHT22;7262;48.764;9.166;2022-12-18T02:58:58;-7.10;99.90
14357;DHT22;7262;48.764;9.166;2022-12-18T03:01:28;-7.10;99.90
14357;DHT22;7262;48.764;9.166;2022-12-18T03:03:59;-7.10;99.90
14357;DHT22;7262;48.764;9.166;2022-12-18T03:06:28;-7.10;99.90
14357;DHT22;7262;48.764;9.166;2022-12-18T03:08:56;-7.10;99.90
14357;DHT22;7262;48.764;9.166;2022-12-18T03:11:25;-7.20;99.90
14357;DHT22;7262;48.764;9.166;2022-12-18T03:14:08;-7.20;99.90
14357;DHT22;7262;48.764;9.166;2022-12-18T03:16:36;-7.20;99.90
14357;DHT22;7262;48.764;9.166;2022-12-18T03:19:04;-7.20;99.90
14357;DHT22;7262;48.764;9.166;2022-12-18T03:21:33;-7.20;99.90
14357;DHT22;7262;48.764;9.166;2022-12-18T03:24:02;-7.20;99.90
14357;DHT22;7262;48.764;9.166;2022-12-18T03:26:32;-7.30;99.90
14357;DHT22;7262;48.764;9.166;2022-12-18T03:29:00;-7.30;99.90
14357;DHT22;7262;48.764;9.166;2022-12-18T03:31:30;-7.30;99.90
14357;DHT22;7262;48.764;9.166;2022-12-18T03:33:58;-7.30;99.90
14357;DHT22;7262;48.764;9.166;2022-12-18T03:36:30;-7.30;99.90
14357;DHT22;7262;48.764;9.166;2022-12-18T03:38:58;-7.30;99.90
14357;DHT22;7262;48.764;9.166;2022-12-18T03:41:28;-7.40;99.90
14357;DHT22;7262;48.764;9.166;2022-12-18T03:43:59;-7.40;99.90
14357;DHT22;7262;48.764;9.166;2022-12-18T03:46:28;-7.40;99.90
14357;DHT22;7262;48.764;9.166;2022-12-18T03:49:01;-7.40;99.90
14357;DHT22;7262;48.764;9.166;2022-12-18T03:51:31;-7.40;99.90
14357;DHT22;7262;48.764;9.166;2022-12-18T03:54:02;-7.50;99.90
14357;DHT22;7262;48.764;9.166;2022-12-18T03:56:31;-7.50;99.90
14357;DHT22;7262;48.764;9.166;2022-12-18T03:58:58;-7.50;99.90
14357;DHT22;7262;48.764;9.166;2022-12-18T04:01:31;-7.50;99.90
14357;DHT22;7262;48.764;9.166;2022-12-18T04:03:58;-7.50;99.90
14357;DHT22;7262;48.764;9.166;2022-12-18T04:06:29;-7.50;99.90
14357;DHT22;7262;48.764;9.166;2022-12-18T04:08:57;-7.50;99.90
14357;DHT22;7262;48.764;9.166;2022-12-18T04:11:24;-7.60;99.90
14357;DHT22;7262;48.764;9.166;2022-12-18T04:13:52;-7.60;99.90
14357;DHT22;7262;48.764;9.166;2022-12-18T04:16:22;-7.60;99.90
14357;DHT22;7262;48.764;9.166;2022-12-18T04:18:50;-7.50;99.90
14357;DHT22;7262;48.764;9.166;2022-12-18T04:21:17;-7.50;99.90
14357;DHT22;7262;48.764;9.166;2022-12-18T04:23:45;-7.60;99.90
14357;DHT22;7262;48.764;9.166;2022-12-18T04:26:12;-7.60;99.90
14357;DHT22;7262;48.764;9.166;2022-12-18T04:28:39;-7.70;99.90
14357;DHT22;7262;48.764;9.166;2022-12-18T04:31:05;-7.80;99.90
14357;DHT22;7262;48.764;9.166;2022-12-18T04:33:32;-7.80;99.90
14357;DHT22;7262;48.764;9.166;2022-12-18T04:35:59;-7.80;99.90
14357;DHT22;7262;48.764;9.166;2022-12-18T04:38:26;-7.70;99.90
14357;DHT22;7262;48.764;9.166;2022-12-18T04:40:54;-7.90;99.90
14357;DHT22;7262;48.764;9.166;2022-12-18T04:43:20;-7.90;99.90
14357;DHT22;7262;48.764;9.166;2022-12-18T04:45:47;-7.90;99.90
14357;DHT22;7262;48.764;9.166;2022-12-18T04:48:14;-7.80;99.90
14357;DHT22;7262;48.764;9.166;2022-12-18T04:50:41;-7.90;99.90
14357;DHT22;7262;48.764;9.166;2022-12-18T04:53:08;-8.00;99.90
14357;DHT22;7262;48.764;9.166;2022-12-18T04:55:35;-7.90;99.90
14357;DHT22;7262;48.764;9.166;2022-12-18T04:58:03;-7.80;99.90
14357;DHT22;7262;48.764;9.166;2022-12-18T05:00:30;-7.80;99.90
14357;DHT22;7262;48.764;9.166;2022-12-18T05:02:57;-7.70;99.90
14357;DHT22;7262;48.764;9.166;2022-12-18T05:05:24;-7.70;99.90
14357;DHT22;7262;48.764;9.166;2022-12-18T05:07:52;-7.60;99.90
14357;DHT22;7262;48.764;9.166;2022-12-18T05:10:18;-7.70;99.90
14357;DHT22;7262;48.764;9.166;2022-12-18T05:12:45;-7.60;99.90
14357;DHT22;7262;48.764;9.166;2022-12-18T05:15:26;-7.80;99.90
14357;DHT22;7262;48.764;9.166;2022-12-18T05:17:52;-7.90;99.90
14357;DHT22;7262;48.764;9.166;2022-12-18T05:20:19;-8.00;99.90
14357;DHT22;7262;48.764;9.166;2022-12-18T05:22:47;-8.00;99.90
14357;DHT22;7262;48.764;9.166;2022-12-18T05:25:14;-8.10;99.90
14357;DHT22;7262;48.764;9.166;2022-12-18T05:27:41;-8.10;99.90
14357;DHT22;7262;48.764;9.166;2022-12-18T05:30:11;-8.10;99.90
14357;DHT22;7262;48.764;9.166;2022-12-18T05:32:39;-8.10;99.90
14357;DHT22;7262;48.764;9.166;2022-12-18T05:35:07;-8.20;99.90
14357;DHT22;7262;48.764;9.166;2022-12-18T05:37:34;-8.20;99.90
14357;DHT22;7262;48.764;9.166;2022-12-18T05:40:01;-8.30;99.90
14357;DHT22;7262;48.764;9.166;2022-12-18T05:42:28;-8.20;99.90
14357;DHT22;7262;48.764;9.166;2022-12-18T05:44:55;-8.20;99.90
14357;DHT22;7262;48.764;9.166;2022-12-18T05:47:21;-8.10;99.90
14357;DHT22;7262;48.764;9.166;2022-12-18T05:49:49;-8.30;99.90
14357;DHT22;7262;48.764;9.166;2022-12-18T05:52:16;-8.30;99.90
14357;DHT22;7262;48.764;9.166;2022-12-18T05:54:43;-8.40;99.90
14357;DHT22;7262;48.764;9.166;2022-12-18T05:57:10;-8.40;99.90
14357;DHT22;7262;48.764;9.166;2022-12-18T05:59:37;-8.40;99.90
14357;DHT22;7262;48.764;9.166;2022-12-18T06:02:05;-8.50;99.90
14357;DHT22;7262;48.764;9.166;2022-12-18T06:04:32;-8.50;99.90
14357;DHT22;7262;48.764;9.166;2022-12-18T06:07:00;-8.60;99.90
14357;DHT22;7262;48.764;9.166;2022-12-18T06:09:29;-8.50;99.90
14357;DHT22;7262;48.764;9.166;2022-12-18T06:11:59;-8.60;99.90
14357;DHT22;7262;48.764;9.166;2022-12-18T06:14:26;-8.70;99.90
14357;DHT22;7262;48.764;9.166;2022-12-18T06:16:53;-8.70;99.90
14357;DHT22;7262;48.764;9.166;2022-12-18T06:19:24;-8.70;99.90
14357;DHT22;7262;48.764;9.166;2022-12-18T06:21:50;-8.80;99.90
14357;DHT22;7262;48.764;9.166;2022-12-18T06:24:21;-8.80;99.90
14357;DHT22;7262;48.764;9.166;2022-12-18T06:26:48;-8.90;99.90
14357;DHT22;7262;48.764;9.166;2022-12-18T06:29:16;-8.90;99.90
14357;DHT22;7262;48.764;9.166;2022-12-18T06:31:43;-8.90;99.90
14357;DHT22;7262;48.764;9.166;2022-12-18T06:34:11;-8.90;99.90
14357;DHT22;7262;48.764;9.166;2022-12-18T06:36:38;-9.00;99.90
14357;DHT22;7262;48.764;9.166;2022-12-18T06:39:04;-9.00;99.90
14357;DHT22;7262;48.764;9.166;2022-12-18T06:41:32;-9.00;99.90
14357;DHT22;7262;48.764;9.166;2022-12-18T06:43:59;-9.00;99.90
14357;DHT22;7262;48.764;9.166;2022-12-18T06:46:26;-9.10;99.90
14357;DHT22;7262;48.764;9.166;2022-12-18T06:48:53;-9.00;99.90
14357;DHT22;7262;48.764;9.166;2022-12-18T06:51:21;-9.00;99.90
14357;DHT22;7262;48.764;9.166;2022-12-18T06:53:51;-9.00;99.90
14357;DHT22;7262;48.764;9.166;2022-12-18T06:56:18;-8.90;99.90
14357;DHT22;7262;48.764;9.166;2022-12-18T06:58:46;-9.00;99.90
14357;DHT22;7262;48.764;9.166;2022-12-18T07:01:14;-9.00;99.90
14357;DHT22;7262;48.764;9.166;2022-12-18T07:03:40;-8.90;99.90
14357;DHT22;7262;48.764;9.166;2022-12-18T07:06:12;-8.90;99.90
14357;DHT22;7262;48.764;9.166;2022-12-18T07:08:41;-8.90;99.90
14357;DHT22;7262;48.764;9.166;2022-12-18T07:11:08;-9.00;99.90
14357;DHT22;7262;48.764;9.166;2022-12-18T07:13:35;-8.90;99.90
14357;DHT22;7262;48.764;9.166;2022-12-18T07:16:08;-9.00;99.90
14357;DHT22;7262;48.764;9.166;2022-12-18T07:18:35;-9.10;99.90
14357;DHT22;7262;48.764;9.166;2022-12-18T07:21:03;-9.10;99.90
14357;DHT22;7262;48.764;9.166;2022-12-18T07:23:32;-9.10;99.90
14357;DHT22;7262;48.764;9.166;2022-12-18T07:26:01;-9.00;99.90
14357;DHT22;7262;48.764;9.166;2022-12-18T07:28:29;-9.00;99.90
14357;DHT22;7262;48.764;9.166;2022-12-18T07:30:56;-8.90;99.90
14357;DHT22;7262;48.764;9.166;2022-12-18T07:33:24;-9.00;99.90
14357;DHT22;7262;48.764;9.166;2022-12-18T07:35:50;-8.90;99.90
14357;DHT22;7262;48.764;9.166;2022-12-18T07:38:17;-9.00;99.90
14357;DHT22;7262;48.764;9.166;2022-12-18T07:40:44;-8.90;99.90
14357;DHT22;7262;48.764;9.166;2022-12-18T07:43:11;-8.90;99.90
14357;DHT22;7262;48.764;9.166;2022-12-18T07:45:38;-8.90;99.90
14357;DHT22;7262;48.764;9.166;2022-12-18T07:48:05;-8.90;99.90
14357;DHT22;7262;48.764;9.166;2022-12-18T07:50:33;-8.90;99.90
14357;DHT22;7262;48.764;9.166;2022-12-18T07:53:00;-8.80;99.90
14357;DHT22;7262;48.764;9.166;2022-12-18T07:55:29;-8.80;99.90
14357;DHT22;7262;48.764;9.166;2022-12-18T07:57:55;-8.90;99.90
14357;DHT22;7262;48.764;9.166;2022-12-18T08:00:22;-8.60;99.90
14357;DHT22;7262;48.764;9.166;2022-12-18T08:02:50;-8.50;99.90
14357;DHT22;7262;48.764;9.166;2022-12-18T08:05:17;-8.50;99.90
14357;DHT22;7262;48.764;9.166;2022-12-18T08:07:45;-8.60;99.90
14357;DHT22;7262;48.764;9.166;2022-12-18T08:10:11;-8.40;99.90
14357;DHT22;7262;48.764;9.166;2022-12-18T08:12:38;-8.50;99.90
14357;DHT22;7262;48.764;9.166;2022-12-18T08:15:06;-8.40;99.90
14357;DHT22;7262;48.764;9.166;2022-12-18T08:17:33;-8.50;99.90
14357;DHT22;7262;48.764;9.166;2022-12-18T08:20:00;-8.40;99.90
14357;DHT22;7262;48.764;9.166;2022-12-18T08:22:27;-8.50;99.90
14357;DHT22;7262;48.764;9.166;2022-12-18T08:24:55;-8.30;99.90
14357;DHT22;7262;48.764;9.166;2022-12-18T08:27:26;-8.10;99.90
14357;DHT22;7262;48.764;9.166;2022-12-18T08:29:54;-7.90;99.90
14357;DHT22;7262;48.764;9.166;2022-12-18T08:32:22;-8.00;99.90
14357;DHT22;7262;48.764;9.166;2022-12-18T08:34:49;-7.90;99.90
14357;DHT22;7262;48.764;9.166;2022-12-18T08:37:15;-7.80;99.90
14357;DHT22;7262;48.764;9.166;2022-12-18T08:39:43;-7.80;99.90
14357;DHT22;7262;48.764;9.166;2022-12-18T08:42:11;-7.60;99.90
14357;DHT22;7262;48.764;9.166;2022-12-18T08:44:56;-7.50;99.90
14357;DHT22;7262;48.764;9.166;2022-12-18T08:47:23;-7.40;99.90
14357;DHT22;7262;48.764;9.166;2022-12-18T08:49:51;-7.40;99.90
14357;DHT22;7262;48.764;9.166;2022-12-18T08:52:22;-7.10;99.90
14357;DHT22;7262;48.764;9.166;2022-12-18T08:54:48;-7.10;99.90
14357;DHT22;7262;48.764;9.166;2022-12-18T08:57:17;-7.00;99.90
14357;DHT22;7262;48.764;9.166;2022-12-18T08:59:43;-6.90;99.90
14357;DHT22;7262;48.764;9.166;2022-12-18T09:02:10;-6.80;99.90
14357;DHT22;7262;48.764;9.166;2022-12-18T09:04:37;-6.60;99.90
14357;DHT22;7262;48.764;9.166;2022-12-18T09:07:05;-6.50;99.90
14357;DHT22;7262;48.764;9.166;2022-12-18T09:09:32;-6.40;99.90
14357;DHT22;7262;48.764;9.166;2022-12-18T09:11:59;-6.40;99.90
14357;DHT22;7262;48.764;9.166;2022-12-18T09:14:30;-6.00;99.90
14357;DHT22;7262;48.764;9.166;2022-12-18T09:16:56;-6.10;99.90
14357;DHT22;7262;48.764;9.166;2022-12-18T09:19:25;-6.00;99.90
14357;DHT22;7262;48.764;9.166;2022-12-18T09:21:52;-5.80;99.90
14357;DHT22;7262;48.764;9.166;2022-12-18T09:24:19;-5.70;99.90
14357;DHT22;7262;48.764;9.166;2022-12-18T09:26:46;-5.70;99.90
14357;DHT22;7262;48.764;9.166;2022-12-18T09:29:12;-5.70;99.90
14357;DHT22;7262;48.764;9.166;2022-12-18T09:31:41;-5.60;99.90
14357;DHT22;7262;48.764;9.166;2022-12-18T09:34:09;-5.40;99.90
14357;DHT22;7262;48.764;9.166;2022-12-18T09:36:36;-5.30;99.90
14357;DHT22;7262;48.764;9.166;2022-12-18T10:15:21;-3.80;99.90
14357;DHT22;7262;48.764;9.166;2022-12-18T10:17:51;-3.70;99.90
14357;DHT22;7262;48.764;9.166;2022-12-18T10:20:20;-3.50;99.90
14357;DHT22;7262;48.764;9.166;2022-12-18T10:22:53;-3.60;99.90
14357;DHT22;7262;48.764;9.166;2022-12-18T10:25:24;-3.40;99.90
14357;DHT22;7262;48.764;9.166;2022-12-18T10:27:52;-3.10;99.90
14357;DHT22;7262;48.764;9.166;2022-12-18T10:30:21;-3.00;99.90
14357;DHT22;7262;48.764;9.166;2022-12-18T10:32:50;-3.00;99.90
14357;DHT22;7262;48.764;9.166;2022-12-18T10:35:18;-2.90;99.90
14357;DHT22;7262;48.764;9.166;2022-12-18T10:37:59;-2.80;99.90
14357;DHT22;7262;48.764;9.166;2022-12-18T10:40:29;-2.80;99.90
14357;DHT22;7262;48.764;9.166;2022-12-18T10:43:09;-2.70;99.90
14357;DHT22;7262;48.764;9.166;2022-12-18T10:45:38;-2.40;99.90
14357;DHT22;7262;48.764;9.166;2022-12-18T10:48:17;-2.30;99.90
14357;DHT22;7262;48.764;9.166;2022-12-18T10:50:46;-2.30;99.90
14357;DHT22;7262;48.764;9.166;2022-12-18T10:53:15;-1.80;99.90
14357;DHT22;7262;48.764;9.166;2022-12-18T10:55:44;-1.90;99.90
14357;DHT22;7262;48.764;9.166;2022-12-18T10:58:13;-1.80;99.90
14357;DHT22;7262;48.764;9.166;2022-12-18T11:00:43;-1.70;99.90
14357;DHT22;7262;48.764;9.166;2022-12-18T11:05:52;-1.50;99.90
14357;DHT22;7262;48.764;9.166;2022-12-18T11:08:27;-1.30;99.90
14357;DHT22;7262;48.764;9.166;2022-12-18T11:10:54;-0.50;99.90
14357;DHT22;7262;48.764;9.166;2022-12-18T11:13:21;0.30;99.90
14357;DHT22;7262;48.764;9.166;2022-12-18T11:15:50;1.00;99.90
14357;DHT22;7262;48.764;9.166;2022-12-18T11:18:18;1.70;99.90
14357;DHT22;7262;48.764;9.166;2022-12-18T11:20:50;1.70;99.90
14357;DHT22;7262;48.764;9.166;2022-12-18T11:23:18;2.30;99.90
14357;DHT22;7262;48.764;9.166;2022-12-18T11:25:50;2.90;99.90
14357;DHT22;7262;48.764;9.166;2022-12-18T11:28:25;3.20;99.90
14357;DHT22;7262;48.764;9.166;2022-12-18T11:31:09;3.70;99.90
14357;DHT22;7262;48.764;9.166;2022-12-18T11:33:41;4.00;99.90
14357;DHT22;7262;48.764;9.166;2022-12-18T11:36:08;3.90;99.90
14357;DHT22;7262;48.764;9.166;2022-12-18T11:38:36;2.80;99.90
14357;DHT22;7262;48.764;9.166;2022-12-18T11:41:04;2.10;99.90
14357;DHT22;7262;48.764;9.166;2022-12-18T11:43:33;1.30;99.90
14357;DHT22;7262;48.764;9.166;2022-12-18T11:46:04;0.70;99.90
14357;DHT22;7262;48.764;9.166;2022-12-18T11:48:34;0.20;99.90
14357;DHT22;7262;48.764;9.166;2022-12-18T11:51:04;-0.10;99.90
14357;DHT22;7262;48.764;9.166;2022-12-18T11:53:32;0.00;99.90
14357;DHT22;7262;48.764;9.166;2022-12-18T11:56:05;-0.20;99.90
14357;DHT22;7262;48.764;9.166;2022-12-18T12:01:30;-0.10;99.90
14357;DHT22;7262;48.764;9.166;2022-12-18T12:06:56;0.10;99.90
14357;DHT22;7262;48.764;9.166;2022-12-18T12:09:29;0.00;99.90
14357;DHT22;7262;48.764;9.166;2022-12-18T12:12:02;0.00;99.90
14357;DHT22;7262;48.764;9.166;2022-12-18T12:14:38;-0.10;99.90
14357;DHT22;7262;48.764;9.166;2022-12-18T12:17:09;-0.10;99.90
14357;DHT22;7262;48.764;9.166;2022-12-18T12:19:40;0.10;99.90
14357;DHT22;7262;48.764;9.166;2022-12-18T12:22:13;0.20;99.90
14357;DHT22;7262;48.764;9.166;2022-12-18T12:24:47;0.20;99.90
14357;DHT22;7262;48.764;9.166;2022-12-18T12:27:16;0.00;99.90
14357;DHT22;7262;48.764;9.166;2022-12-18T12:29:47;0.00;99.90
14357;DHT22;7262;48.764;9.166;2022-12-18T12:32:20;0.10;99.90
14357;DHT22;7262;48.764;9.166;2022-12-18T12:34:53;0.00;99.90
14357;DHT22;7262;48.764;9.166;2022-12-18T12:37:28;0.10;99.90
14357;DHT22;7262;48.764;9.166;2022-12-18T12:40:01;0.10;99.90
14357;DHT22;7262;48.764;9.166;2022-12-18T12:42:43;0.10;99.90
14357;DHT22;7262;48.764;9.166;2022-12-18T12:45:30;-0.20;99.90
14357;DHT22;7262;48.764;9.166;2022-12-18T12:48:00;0.00;99.90
14357;DHT22;7262;48.764;9.166;2022-12-18T12:50:28;-0.20;99.90
14357;DHT22;7262;48.764;9.166;2022-12-18T12:52:59;-0.10;99.90
14357;DHT22;7262;48.764;9.166;2022-12-18T12:55:28;-0.10;99.90
14357;DHT22;7262;48.764;9.166;2022-12-18T12:57:57;0.00;99.90
14357;DHT22;7262;48.764;9.166;2022-12-18T13:00:26;0.00;99.90
14357;DHT22;7262;48.764;9.166;2022-12-18T13:02:56;-0.10;99.90
14357;DHT22;7262;48.764;9.166;2022-12-18T13:05:27;0.10;99.90
14357;DHT22;7262;48.764;9.166;2022-12-18T13:07:57;0.10;99.90
14357;DHT22;7262;48.764;9.166;2022-12-18T13:10:30;0.10;99.90
14357;DHT22;7262;48.764;9.166;2022-12-18T13:12:58;0.20;99.90
14357;DHT22;7262;48.764;9.166;2022-12-18T13:15:26;0.20;99.90
14357;DHT22;7262;48.764;9.166;2022-12-18T13:20:41;0.20;99.90
14357;DHT22;7262;48.764;9.166;2022-12-18T13:25:56;0.20;99.90
14357;DHT22;7262;48.764;9.166;2022-12-18T13:28:26;0.20;99.90
14357;DHT22;7262;48.764;9.166;2022-12-18T13:31:11;0.10;99.90
14357;DHT22;7262;48.764;9.166;2022-12-18T13:33:39;0.10;99.90
14357;DHT22;7262;48.764;9.166;2022-12-18T13:36:14;0.20;99.90
14357;DHT22;7262;48.764;9.166;2022-12-18T13:38:43;0.30;99.90
14357;DHT22;7262;48.764;9.166;2022-12-18T13:41:24;0.20;99.90
14357;DHT22;7262;48.764;9.166;2022-12-18T13:43:51;0.00;99.90
14357;DHT22;7262;48.764;9.166;2022-12-18T13:46:19;0.10;99.90
14357;DHT22;7262;48.764;9.166;2022-12-18T13:48:57;0.00;99.90
14357;DHT22;7262;48.764;9.166;2022-12-18T13:51:25;0.10;99.90
14357;DHT22;7262;48.764;9.166;2022-12-18T13:53:53;0.00;99.90
14357;DHT22;7262;48.764;9.166;2022-12-18T13:56:22;-0.10;99.90
14357;DHT22;7262;48.764;9.166;2022-12-18T14:01:40;0.00;99.90
14357;DHT22;7262;48.764;9.166;2022-12-18T14:04:11;0.10;99.90
14357;DHT22;7262;48.764;9.166;2022-12-18T14:06:38;0.20;99.90
14357;DHT22;7262;48.764;9.166;2022-12-18T14:09:05;0.30;99.90
14357;DHT22;7262;48.764;9.166;2022-12-18T14:11:32;0.10;99.90
14357;DHT22;7262;48.764;9.166;2022-12-18T14:13:59;-0.10;99.90
14357;DHT22;7262;48.764;9.166;2022-12-18T14:16:28;-0.10;99.90
14357;DHT22;7262;48.764;9.166;2022-12-18T14:18:56;-0.10;99.90
14357;DHT22;7262;48.764;9.166;2022-12-18T14:21:24;-0.10;99.90
14357;DHT22;7262;48.764;9.166;2022-12-18T14:24:05;-0.20;99.90
14357;DHT22;7262;48.764;9.166;2022-12-18T14:26:32;-0.20;99.90
14357;DHT22;7262;48.764;9.166;2022-12-18T14:29:00;-0.30;99.90
14357;DHT22;7262;48.764;9.166;2022-12-18T14:31:28;-0.30;99.90
14357;DHT22;7262;48.764;9.166;2022-12-18T14:33:57;-0.30;99.90
14357;DHT22;7262;48.764;9.166;2022-12-18T14:36:24;-0.40;99.90
14357;DHT22;7262;48.764;9.166;2022-12-18T14:38:54;-0.60;99.90
14357;DHT22;7262;48.764;9.166;2022-12-18T14:41:22;-0.70;99.90
14357;DHT22;7262;48.764;9.166;2022-12-18T14:43:50;-0.80;99.90
14357;DHT22;7262;48.764;9.166;2022-12-18T14:46:28;-0.80;99.90
14357;DHT22;7262;48.764;9.166;2022-12-18T14:48:56;-1.00;99.90
14357;DHT22;7262;48.764;9.166;2022-12-18T14:51:24;-1.10;99.90
14357;DHT22;7262;48.764;9.166;2022-12-18T14:53:53;-1.20;99.90
14357;DHT22;7262;48.764;9.166;2022-12-18T14:56:21;-1.30;99.90
14357;DHT22;7262;48.764;9.166;2022-12-18T14:58:49;-1.40;99.90
14357;DHT22;7262;48.764;9.166;2022-12-18T15:01:20;-1.40;99.90
14357;DHT22;7262;48.764;9.166;2022-12-18T15:03:48;-1.50;99.90
14357;DHT22;7262;48.764;9.166;2022-12-18T15:06:23;-1.50;99.90
14357;DHT22;7262;48.764;9.166;2022-12-18T15:08:53;-1.70;99.90
14357;DHT22;7262;48.764;9.166;2022-12-18T15:11:27;-1.70;99.90
14357;DHT22;7262;48.764;9.166;2022-12-18T15:13:54;-1.70;99.90
14357;DHT22;7262;48.764;9.166;2022-12-18T15:16:21;-1.80;99.90
14357;DHT22;7262;48.764;9.166;2022-12-18T15:18:47;-1.90;99.90
14357;DHT22;7262;48.764;9.166;2022-12-18T15:21:16;-2.00;99.90
14357;DHT22;7262;48.764;9.166;2022-12-18T15:23:46;-2.00;99.90
14357;DHT22;7262;48.764;9.166;2022-12-18T15:26:15;-2.00;99.90
14357;DHT22;7262;48.764;9.166;2022-12-18T15:28:44;-2.20;99.90
14357;DHT22;7262;48.764;9.166;2022-12-18T15:31:23;-2.20;99.90
14357;DHT22;7262;48.764;9.166;2022-12-18T15:36:41;-2.30;99.90
14357;DHT22;7262;48.764;9.166;2022-12-18T15:39:14;-2.40;99.90
14357;DHT22;7262;48.764;9.166;2022-12-18T15:41:42;-2.30;99.90
14357;DHT22;7262;48.764;9.166;2022-12-18T15:44:29;-2.40;99.90
14357;DHT22;7262;48.764;9.166;2022-12-18T15:46:55;-2.30;99.90
14357;DHT22;7262;48.764;9.166;2022-12-18T15:49:22;-2.40;99.90
14357;DHT22;7262;48.764;9.166;2022-12-18T15:51:50;-2.40;99.90
14357;DHT22;7262;48.764;9.166;2022-12-18T15:54:20;-2.30;99.90
14357;DHT22;7262;48.764;9.166;2022-12-18T15:57:08;-2.40;99.90
14357;DHT22;7262;48.764;9.166;2022-12-18T15:59:50;-2.40;99.90
14357;DHT22;7262;48.764;9.166;2022-12-18T16:02:18;-2.40;99.90
14357;DHT22;7262;48.764;9.166;2022-12-18T16:04:47;-2.50;99.90
14357;DHT22;7262;48.764;9.166;2022-12-18T16:07:14;-2.50;99.90
14357;DHT22;7262;48.764;9.166;2022-12-18T16:09:42;-2.50;99.90
14357;DHT22;7262;48.764;9.166;2022-12-18T16:12:13;-2.60;99.90
14357;DHT22;7262;48.764;9.166;2022-12-18T16:14:41;-2.60;99.90
14357;DHT22;7262;48.764;9.166;2022-12-18T16:17:09;-2.60;99.90
14357;DHT22;7262;48.764;9.166;2022-12-18T16:19:36;-2.60;99.90
14357;DHT22;7262;48.764;9.166;2022-12-18T16:22:08;-2.70;99.90
14357;DHT22;7262;48.764;9.166;2022-12-18T16:24:42;-2.70;99.90
14357;DHT22;7262;48.764;9.166;2022-12-18T16:27:13;-2.70;99.90
14357;DHT22;7262;48.764;9.166;2022-12-18T16:29:40;-2.80;99.90
14357;DHT22;7262;48.764;9.166;2022-12-18T16:32:11;-2.70;99.90
14357;DHT22;7262;48.764;9.166;2022-12-18T16:34:39;-2.80;99.90
14357;DHT22;7262;48.764;9.166;2022-12-18T16:37:08;-2.50;99.90
14357;DHT22;7262;48.764;9.166;2022-12-18T16:39:36;-2.80;99.90
14357;DHT22;7262;48.764;9.166;2022-12-18T16:42:09;-2.80;99.90
14357;DHT22;7262;48.764;9.166;2022-12-18T16:44:39;-2.80;99.90
14357;DHT22;7262;48.764;9.166;2022-12-18T16:47:07;-2.80;99.90
14357;DHT22;7262;48.764;9.166;2022-12-18T16:49:35;-2.80;99.90
14357;DHT22;7262;48.764;9.166;2022-12-18T16:52:05;-2.90;99.90
14357;DHT22;7262;48.764;9.166;2022-12-18T16:54:32;-2.90;99.90
14357;DHT22;7262;48.764;9.166;2022-12-18T16:57:02;-2.80;99.90